MTY weather

General Mariano Escobedo International Airport
Monterrey, Nuevo Leon, Mexico

Public forecast

Using degrees Celsius for public forecast. Weather courtesy of forecast.io.

METAR (pilot weather report)

Retrieved 2019/04/26 09:43 UTC (0 seconds ago):

MMMY 260943Z 21006KT 15SM SCT100 19/11 A3003 RMK 8/070

TAF (pilot weather forecast)

Retrieved 2019/04/26 06:43 UTC (3 hours ago):

TAF MMMY 260536Z 2606/2712 14004KT P6SM SCT100 TX36/2622Z TN18/2612Z FM261800 13010KT P6SM SCT080 SCT220 BECMG 2705/2707 09004KT